createdAt,value
2023-03-22T00:01:53.876Z,18.02
2023-03-22T00:04:39.633Z,19.25
2023-03-22T00:07:26.650Z,23.58
2023-03-22T00:10:12.628Z,25.58
2023-03-22T00:12:58.386Z,33.63
2023-03-22T00:15:49.208Z,25.92
2023-03-22T00:18:35.188Z,21.02
2023-03-22T00:21:21.372Z,19.38
2023-03-22T00:24:07.645Z,18.15
2023-03-22T00:26:53.682Z,21.70
2023-03-22T00:29:39.508Z,18.85
2023-03-22T00:32:25.485Z,18.92
2023-03-22T00:35:12.250Z,26.42
2023-03-22T00:37:58.576Z,23.17
2023-03-22T00:40:44.859Z,17.13
2023-03-22T00:43:30.633Z,23.50
2023-03-22T00:46:19.384Z,16.98
2023-03-22T00:49:05.904Z,18.83
2023-03-22T00:51:51.801Z,18.25
2023-03-22T00:54:37.635Z,18.10
2023-03-22T00:57:23.948Z,16.20
2023-03-22T01:00:16.209Z,20.45
2023-03-22T01:03:04.893Z,15.45
2023-03-22T01:05:55.525Z,17.73
2023-03-22T01:08:42.054Z,14.60
2023-03-22T01:11:28.428Z,19.23
2023-03-22T01:14:14.238Z,18.40
2023-03-22T01:17:00.465Z,16.58
2023-03-22T01:19:46.692Z,18.52
2023-03-22T01:22:33.109Z,18.33
2023-03-22T01:25:19.079Z,18.50
2023-03-22T01:28:06.917Z,15.13
2023-03-22T01:30:53.075Z,16.80
2023-03-22T01:33:38.917Z,16.10
2023-03-22T01:36:24.817Z,18.88
2023-03-22T01:39:11.122Z,15.20
2023-03-22T01:41:59.229Z,16.55
2023-03-22T01:45:13.778Z,15.20
2023-03-22T01:48:22.144Z,14.48
2023-03-22T01:51:11.527Z,16.23
2023-03-22T01:54:18.717Z,15.30
2023-03-22T01:57:05.393Z,16.63
2023-03-22T01:59:57.694Z,16.13
2023-03-22T02:02:59.811Z,16.73
2023-03-22T02:05:54.184Z,17.58
2023-03-22T02:08:43.214Z,16.77
2023-03-22T02:11:41.557Z,17.70
2023-03-22T02:15:03.409Z,14.52
2023-03-22T02:18:16.466Z,17.30
2023-03-22T02:21:27.157Z,19.67
2023-03-22T02:24:32.919Z,17.25
2023-03-22T02:27:53.137Z,15.68
2023-03-22T02:31:17.774Z,16.08
2023-03-22T02:34:15.954Z,19.33
2023-03-22T02:37:23.107Z,15.88
2023-03-22T02:40:16.768Z,15.68
2023-03-22T02:43:18.891Z,16.58
2023-03-22T02:46:09.056Z,15.63
2023-03-22T02:49:07.848Z,17.27
2023-03-22T02:52:00.310Z,14.63
2023-03-22T02:54:58.278Z,13.45
2023-03-22T02:57:53.131Z,19.45
2023-03-22T03:00:40.757Z,16.83
2023-03-22T03:03:30.175Z,15.75
2023-03-22T03:06:19.352Z,17.90
2023-03-22T03:09:05.568Z,19.08
2023-03-22T03:11:53.489Z,19.60
2023-03-22T03:14:42.297Z,18.17
2023-03-22T03:17:37.508Z,13.80
2023-03-22T03:20:39.063Z,17.27
2023-03-22T03:23:38.201Z,14.05
2023-03-22T03:26:24.046Z,15.52
2023-03-22T03:29:28.745Z,12.77
2023-03-22T03:35:06.750Z,13.43
2023-03-22T03:37:57.733Z,16.40
2023-03-22T03:40:50.483Z,15.00
2023-03-22T03:43:37.333Z,14.32
2023-03-22T03:46:24.518Z,13.05
2023-03-22T03:49:12.469Z,15.60
2023-03-22T03:51:59.890Z,14.18
2023-03-22T03:54:46.004Z,14.90
2023-03-22T03:57:36.943Z,15.25
2023-03-22T04:00:23.240Z,14.63
2023-03-22T04:03:27.910Z,16.25
2023-03-22T04:06:34.758Z,13.20
2023-03-22T04:09:29.543Z,13.80
2023-03-22T04:12:20.989Z,14.98
2023-03-22T04:15:36.286Z,16.58
2023-03-22T04:18:29.719Z,14.43
2023-03-22T04:21:19.836Z,13.02
2023-03-22T04:24:13.626Z,11.93
2023-03-22T04:27:01.953Z,13.20
2023-03-22T04:29:58.106Z,13.85
2023-03-22T04:33:07.188Z,15.68
2023-03-22T04:36:17.536Z,11.90
2023-03-22T04:39:35.772Z,13.77
2023-03-22T04:42:57.509Z,14.63
2023-03-22T04:46:04.419Z,13.27
2023-03-22T04:48:58.182Z,14.00
2023-03-22T04:51:44.063Z,13.90
2023-03-22T04:54:53.088Z,13.70
2023-03-22T04:57:38.885Z,14.65
2023-03-22T05:00:24.663Z,14.82
2023-03-22T05:03:12.162Z,15.07
2023-03-22T05:06:06.613Z,13.65
2023-03-22T05:09:24.843Z,15.07
2023-03-22T05:12:12.607Z,14.98
2023-03-22T05:15:06.756Z,14.05
2023-03-22T05:17:56.336Z,12.63
2023-03-22T05:20:43.442Z,13.88
2023-03-22T05:23:43.086Z,10.75
2023-03-22T05:26:30.712Z,14.63
2023-03-22T05:29:17.078Z,12.50
2023-03-22T05:32:19.674Z,11.35
2023-03-22T05:35:07.677Z,13.95
2023-03-22T05:37:58.466Z,14.40
2023-03-22T05:40:47.246Z,11.82
2023-03-22T05:43:33.771Z,11.52
2023-03-22T05:46:19.977Z,11.32
2023-03-22T05:49:28.413Z,10.90
2023-03-22T05:52:15.419Z,12.15
2023-03-22T05:55:27.640Z,11.00
2023-03-22T05:58:19.229Z,11.68
2023-03-22T06:01:09.424Z,11.25
2023-03-22T06:04:18.766Z,14.18
2023-03-22T06:07:15.461Z,11.18
2023-03-22T06:10:07.894Z,9.57
2023-03-22T06:12:55.467Z,11.02
2023-03-22T06:18:40.795Z,8.52
2023-03-22T06:21:30.474Z,8.15
2023-03-22T06:24:16.752Z,9.00
2023-03-22T06:27:02.945Z,13.18
2023-03-22T06:29:51.026Z,12.77
2023-03-22T06:32:41.796Z,13.18
2023-03-22T06:35:28.196Z,11.50
2023-03-22T06:38:14.196Z,7.93
2023-03-22T06:41:00.066Z,13.10
2023-03-22T06:43:46.486Z,9.48
2023-03-22T06:50:04.100Z,8.40
2023-03-22T06:53:12.451Z,11.10
2023-03-22T06:55:59.203Z,10.57
2023-03-22T06:58:46.053Z,9.65
2023-03-22T07:01:32.416Z,10.80
2023-03-22T07:04:20.073Z,9.60
2023-03-22T07:07:07.478Z,12.30
2023-03-22T07:09:54.775Z,8.52
2023-03-22T07:12:41.128Z,11.02
2023-03-22T07:15:33.012Z,13.20
2023-03-22T07:18:24.432Z,8.05
2023-03-22T07:21:10.373Z,7.18
2023-03-22T07:23:59.171Z,9.15
2023-03-22T07:26:47.948Z,7.57
2023-03-22T07:29:38.373Z,10.18
2023-03-22T07:32:25.357Z,10.60
2023-03-22T07:35:24.999Z,6.75
2023-03-22T07:38:13.115Z,6.20
2023-03-22T07:41:00.604Z,5.63
2023-03-22T07:44:15.277Z,5.32
2023-03-22T07:47:10.949Z,6.18
2023-03-22T07:50:02.832Z,6.47
2023-03-22T07:52:52.864Z,6.68
2023-03-22T07:55:39.315Z,6.90
2023-03-22T07:58:25.270Z,5.68
2023-03-22T08:01:11.331Z,5.18
2023-03-22T08:04:16.023Z,7.28
2023-03-22T08:07:25.062Z,5.80
2023-03-22T08:10:11.934Z,6.68
2023-03-22T08:12:57.651Z,4.82
2023-03-22T08:15:45.517Z,5.78
2023-03-22T08:18:32.316Z,6.88
2023-03-22T08:21:18.261Z,7.63
2023-03-22T08:24:09.760Z,4.65
2023-03-22T08:27:28.115Z,8.07
2023-03-22T08:30:16.649Z,5.93
2023-03-22T08:33:02.883Z,6.18
2023-03-22T08:35:48.741Z,4.35
2023-03-22T08:38:34.801Z,8.65
2023-03-22T08:41:21.124Z,4.97
2023-03-22T08:44:07.208Z,4.93
2023-03-22T08:46:54.796Z,3.15
2023-03-22T08:49:41.862Z,6.47
2023-03-22T08:52:37.949Z,4.43
2023-03-22T08:55:28.408Z,4.63
2023-03-22T08:58:32.560Z,7.70
2023-03-22T09:01:41.742Z,5.38
2023-03-22T09:04:28.919Z,4.60
2023-03-22T09:07:17.562Z,4.50
2023-03-22T09:10:08.862Z,5.93
2023-03-22T09:12:57.729Z,3.97
2023-03-22T09:15:45.139Z,3.55
2023-03-22T09:18:38.319Z,3.22
2023-03-22T09:21:29.918Z,3.30
2023-03-22T09:24:36.122Z,2.33
2023-03-22T09:27:23.135Z,2.33
2023-03-22T09:30:10.330Z,2.63
2023-03-22T09:32:56.398Z,2.55
2023-03-22T09:35:43.674Z,7.45
2023-03-22T09:38:33.909Z,2.63
2023-03-22T09:41:52.766Z,1.85
2023-03-22T09:44:43.963Z,1.33
2023-03-22T09:47:51.741Z,2.80
2023-03-22T09:50:43.158Z,6.05
2023-03-22T09:53:32.612Z,4.68
2023-03-22T09:56:26.160Z,5.75
2023-03-22T09:59:44.380Z,3.58
2023-03-22T10:02:45.841Z,2.83
2023-03-22T10:05:39.893Z,5.28
2023-03-22T10:08:33.918Z,4.95
2023-03-22T10:12:05.114Z,4.50
2023-03-22T10:15:00.443Z,6.50
2023-03-22T10:17:51.451Z,4.28
2023-03-22T10:20:42.405Z,4.45
2023-03-22T10:23:44.232Z,2.38
2023-03-22T10:26:42.720Z,4.10
2023-03-22T10:29:38.966Z,3.28
2023-03-22T10:33:04.608Z,4.82
2023-03-22T10:35:51.556Z,6.47
2023-03-22T10:38:43.861Z,4.28
2023-03-22T10:41:30.395Z,6.05
2023-03-22T10:44:18.306Z,8.10
2023-03-22T10:47:08.233Z,3.92
2023-03-22T10:49:56.194Z,3.08
2023-03-22T10:52:50.345Z,4.18
2023-03-22T10:55:41.844Z,2.30
2023-03-22T10:58:35.024Z,2.20
2023-03-22T11:01:32.835Z,2.67
2023-03-22T11:04:20.727Z,2.40
2023-03-22T11:07:06.785Z,4.65
2023-03-22T11:10:22.015Z,3.70
2023-03-22T11:13:07.613Z,7.50
2023-03-22T11:16:02.409Z,4.07
2023-03-22T11:18:48.776Z,1.65
2023-03-22T11:21:35.106Z,3.70
2023-03-22T11:24:22.256Z,4.28
2023-03-22T11:27:33.123Z,1.98
2023-03-22T11:30:29.171Z,5.53
2023-03-22T11:33:18.605Z,3.58
2023-03-22T11:36:16.455Z,2.80
2023-03-22T11:39:07.889Z,6.32
2023-03-22T11:41:57.719Z,5.60
2023-03-22T11:44:44.632Z,4.10
2023-03-22T11:47:34.641Z,2.50
2023-03-22T11:50:32.924Z,1.98
2023-03-22T11:53:23.206Z,2.45
2023-03-22T11:56:11.444Z,3.40
2023-03-22T11:59:16.653Z,6.32
2023-03-22T12:02:26.858Z,3.70
2023-03-22T12:05:19.340Z,5.05
2023-03-22T12:08:17.014Z,4.13
2023-03-22T12:11:06.649Z,4.70
2023-03-22T12:14:02.039Z,4.15
2023-03-22T12:16:56.226Z,4.63
2023-03-22T12:19:48.628Z,4.38
2023-03-22T12:25:25.780Z,5.40
2023-03-22T12:28:18.807Z,1.95
2023-03-22T12:31:08.048Z,2.80
2023-03-22T12:33:55.372Z,3.63
2023-03-22T12:36:43.931Z,3.40
2023-03-22T12:39:41.274Z,5.80
2023-03-22T12:42:27.411Z,7.38
2023-03-22T12:45:17.404Z,4.22
2023-03-22T12:48:25.526Z,3.20
2023-03-22T12:51:13.647Z,3.17
2023-03-22T12:54:00.809Z,1.63
2023-03-22T12:56:47.021Z,1.67
2023-03-22T12:59:33.046Z,4.30
2023-03-22T13:02:25.120Z,2.53
2023-03-22T13:05:11.216Z,2.25
2023-03-22T13:07:59.375Z,1.98
2023-03-22T13:10:58.003Z,1.80
2023-03-22T13:13:46.218Z,4.05
2023-03-22T13:16:53.247Z,2.10
2023-03-22T13:19:39.394Z,3.95
2023-03-22T13:22:30.558Z,4.65
2023-03-22T13:25:29.110Z,1.35
2023-03-22T13:28:26.386Z,1.75
2023-03-22T13:31:32.379Z,1.55
2023-03-22T13:34:20.998Z,2.83
2023-03-22T13:37:17.968Z,2.55
2023-03-22T13:40:32.415Z,3.45
2023-03-22T13:43:34.637Z,3.75
2023-03-22T13:46:20.862Z,3.07
2023-03-22T13:49:26.706Z,2.30
2023-03-22T13:52:34.428Z,3.95
2023-03-22T13:55:42.545Z,4.25
2023-03-22T13:58:50.794Z,1.65
2023-03-22T14:01:47.662Z,2.03
2023-03-22T14:04:39.542Z,2.67
2023-03-22T14:07:33.454Z,2.30
2023-03-22T14:10:31.709Z,3.20
2023-03-22T14:13:27.726Z,4.05
2023-03-22T14:16:22.483Z,1.58
2023-03-22T14:19:16.406Z,2.90
